Time;durP1;ratioP1;P1;durP2;ratioP2;P2;SDS_P1;SDS_P2;PMS_P1;PMS_P2;Temp;Humidity;BMP_temperature;BMP_pressure;BME280_temperature;BME280_humidity;BME280_pressure;Samples;Min_cycle;Max_cycle;Signal;HPM_P1;HPM_P2
2023/12/26 00:00:58;;;;;;;3.27;1.80;;;;;21.10;99492.00;;;;2076854;28;20234;-55
2023/12/26 00:01:58;;;;;;;4.00;2.40;;;;;21.10;99493.00;;;;2068880;28;20249;-54
2023/12/26 00:02:58;;;;;;;3.17;1.90;;;;;21.10;99495.00;;;;2075441;28;20222;-54
2023/12/26 00:03:59;;;;;;;3.63;2.00;;;;;21.10;99499.00;;;;2073298;28;20236;-54
2023/12/26 00:04:59;;;;;;;2.73;1.80;;;;;21.10;99503.00;;;;2073541;28;20217;-54
2023/12/26 00:06:00;;;;;;;3.00;1.67;;;;;21.10;99497.00;;;;2078569;28;20820;-54
2023/12/26 00:07:00;;;;;;;4.23;1.93;;;;;21.10;99511.00;;;;2065664;28;20213;-54
2023/12/26 00:08:04;;;;;;;3.10;1.50;;;;;21.10;99495.00;;;;2075163;28;20641;-54
2023/12/26 00:09:04;;;;;;;3.33;1.60;;;;;21.10;99501.00;;;;2071695;28;20221;-55
2023/12/26 00:10:04;;;;;;;3.13;1.70;;;;;21.10;99509.00;;;;2077252;28;20225;-55
2023/12/26 00:11:05;;;;;;;3.77;1.77;;;;;21.10;99511.00;;;;2077435;28;20256;-55
2023/12/26 00:12:06;;;;;;;2.60;1.60;;;;;21.10;99493.00;;;;2055868;28;20800;-55
2023/12/26 00:13:06;;;;;;;3.20;1.60;;;;;21.10;99516.00;;;;2073707;28;20586;-55
2023/12/26 00:14:06;;;;;;;2.57;1.47;;;;;21.10;99501.00;;;;2071146;28;20689;-55
2023/12/26 00:15:07;;;;;;;2.67;1.50;;;;;21.10;99498.00;;;;2072289;28;20220;-55
2023/12/26 00:16:07;;;;;;;3.13;1.60;;;;;21.10;99489.00;;;;2075540;28;20255;-54
2023/12/26 00:17:08;;;;;;;2.60;1.60;;;;;21.10;99504.00;;;;2064032;28;20214;-54
2023/12/26 00:18:08;;;;;;;2.50;1.40;;;;;21.10;99494.00;;;;2070548;28;20378;-55
2023/12/26 00:19:08;;;;;;;2.23;1.40;;;;;21.10;99491.00;;;;2073735;28;20224;-55
2023/12/26 00:20:09;;;;;;;2.90;1.97;;;;;21.10;99486.00;;;;2075115;28;20213;-54
2023/12/26 00:21:09;;;;;;;2.20;1.30;;;;;21.10;99503.00;;;;2076830;28;20229;-54
2023/12/26 00:22:10;;;;;;;2.93;1.20;;;;;21.10;99484.00;;;;2064854;28;20757;-56
2023/12/26 00:23:10;;;;;;;2.20;1.30;;;;;21.10;99491.00;;;;2073634;28;20275;-57
2023/12/26 00:24:10;;;;;;;2.10;1.10;;;;;21.10;99492.00;;;;2069587;28;20225;-57
2023/12/26 00:25:11;;;;;;;3.00;1.47;;;;;21.10;99489.00;;;;2071972;28;20759;-57
2023/12/26 00:26:11;;;;;;;3.80;1.50;;;;;21.10;99474.00;;;;2069280;28;20305;-56
2023/12/26 00:27:11;;;;;;;2.20;1.13;;;;;21.10;99488.00;;;;2060095;28;20272;-55
2023/12/26 00:28:14;;;;;;;2.07;1.07;;;;;21.10;99505.00;;;;2072986;28;20217;-55
2023/12/26 00:29:14;;;;;;;2.70;1.10;;;;;21.10;99498.00;;;;2069761;28;20593;-55
2023/12/26 00:30:14;;;;;;;2.17;1.20;;;;;21.10;99486.00;;;;2072380;28;20221;-55
2023/12/26 00:31:14;;;;;;;1.80;0.90;;;;;21.10;99463.00;;;;2071423;28;20225;-55
2023/12/26 00:32:16;;;;;;;2.47;1.27;;;;;21.10;99478.00;;;;2068554;28;20214;-55
2023/12/26 00:33:17;;;;;;;3.10;1.40;;;;;21.10;99499.00;;;;2071715;28;20211;-55
2023/12/26 00:34:17;;;;;;;2.00;0.93;;;;;21.10;99483.00;;;;2072011;28;20217;-55
2023/12/26 00:35:17;;;;;;;1.77;1.10;;;;;21.10;99472.00;;;;2070125;28;20244;-55
2023/12/26 00:36:18;;;;;;;1.63;0.90;;;;;21.10;99492.00;;;;2078297;28;20221;-55
2023/12/26 00:37:18;;;;;;;2.13;1.10;;;;;21.10;99464.00;;;;2067555;28;20916;-55
2023/12/26 00:38:21;;;;;;;1.47;0.90;;;;;21.10;99505.00;;;;2070868;28;20218;-55
2023/12/26 00:39:21;;;;;;;2.10;0.70;;;;;21.10;99484.00;;;;2074259;28;20236;-55
2023/12/26 00:40:21;;;;;;;2.03;0.80;;;;;21.10;99472.00;;;;2073851;28;20241;-55
2023/12/26 00:41:23;;;;;;;1.80;0.93;;;;;21.00;99487.00;;;;2068538;28;20247;-55
2023/12/26 00:42:23;;;;;;;2.08;1.10;;;;;21.10;99473.00;;;;2072201;28;20300;-55
2023/12/26 00:43:23;;;;;;;2.00;1.20;;;;;21.10;99474.00;;;;2076002;28;21185;-55
2023/12/26 00:44:24;;;;;;;2.13;0.93;;;;;21.00;99465.00;;;;2075699;28;20244;-54
2023/12/26 00:45:25;;;;;;;2.70;1.10;;;;;21.10;99473.00;;;;2076916;28;20214;-54
2023/12/26 00:46:25;;;;;;;1.70;0.90;;;;;21.10;99482.00;;;;2067825;28;20693;-53
2023/12/26 00:47:25;;;;;;;2.13;1.20;;;;;21.10;99490.00;;;;2076408;28;20217;-54
2023/12/26 00:48:26;;;;;;;2.10;1.00;;;;;21.10;99487.00;;;;2077298;28;20275;-54
2023/12/26 00:49:26;;;;;;;1.83;0.60;;;;;21.10;99450.00;;;;2076072;28;20259;-54
2023/12/26 00:50:27;;;;;;;1.87;0.70;;;;;21.10;99475.00;;;;2076787;28;20210;-54
2023/12/26 00:51:27;;;;;;;1.53;0.80;;;;;21.00;99471.00;;;;2065017;28;20286;-55
2023/12/26 00:52:30;;;;;;;1.70;0.80;;;;;21.00;99492.00;;;;2078067;28;20487;-55
2023/12/26 00:53:31;;;;;;;1.55;0.70;;;;;21.00;99472.00;;;;2070758;28;20249;-55
2023/12/26 00:54:31;;;;;;;1.80;0.90;;;;;21.00;99507.00;;;;2076214;28;20210;-54
2023/12/26 00:55:31;;;;;;;2.10;0.90;;;;;21.00;99497.00;;;;2077672;28;20214;-55
2023/12/26 00:56:32;;;;;;;2.33;0.70;;;;;21.00;99462.00;;;;2062951;28;20246;-56
2023/12/26 00:57:33;;;;;;;1.80;1.10;;;;;21.00;99479.00;;;;2081023;28;20225;-55
2023/12/26 00:58:33;;;;;;;1.60;0.73;;;;;21.00;99488.00;;;;2082127;28;20938;-55
2023/12/26 00:59:33;;;;;;;1.50;0.80;;;;;21.00;99497.00;;;;2084350;28;20269;-55
2023/12/26 01:00:34;;;;;;;2.20;0.80;;;;;21.00;99505.00;;;;2072915;28;20758;-55
2023/12/26 01:01:34;;;;;;;1.80;0.67;;;;;21.00;99498.00;;;;2064448;28;20676;-56
2023/12/26 01:02:34;;;;;;;1.90;0.63;;;;;21.00;99505.00;;;;2077165;28;20263;-55
2023/12/26 01:03:35;;;;;;;2.77;0.63;;;;;21.00;99495.00;;;;2077923;28;20218;-56
2023/12/26 01:04:35;;;;;;;1.60;0.70;;;;;21.00;99493.00;;;;2074251;28;20590;-56
2023/12/26 01:05:35;;;;;;;1.87;0.80;;;;;21.00;99506.00;;;;2076047;28;20221;-55
2023/12/26 01:06:36;;;;;;;1.97;0.70;;;;;21.00;99491.00;;;;2068246;28;20673;-55
2023/12/26 01:07:36;;;;;;;1.87;0.70;;;;;21.00;99493.00;;;;2069532;28;20627;-56
2023/12/26 01:08:37;;;;;;;1.40;0.70;;;;;21.00;99531.00;;;;2075938;28;20222;-56
2023/12/26 01:09:37;;;;;;;1.77;0.70;;;;;21.00;99498.00;;;;2069732;28;20661;-55
2023/12/26 01:10:37;;;;;;;1.70;0.77;;;;;21.00;99497.00;;;;2076442;28;20701;-55
2023/12/26 01:11:38;;;;;;;1.20;0.53;;;;;21.00;99472.00;;;;2066237;28;20245;-55
2023/12/26 01:12:38;;;;;;;1.50;0.83;;;;;21.00;99481.00;;;;2075194;28;20226;-56
2023/12/26 01:13:38;;;;;;;2.40;0.63;;;;;21.00;99485.00;;;;2077182;28;20237;-55
2023/12/26 01:14:40;;;;;;;1.10;0.50;;;;;21.00;99496.00;;;;2074104;28;20224;-55
2023/12/26 01:15:40;;;;;;;1.90;0.95;;;;;21.00;99488.00;;;;2077602;28;20225;-57
2023/12/26 01:16:44;;;;;;;1.50;0.70;;;;;21.00;99474.00;;;;2063353;28;20292;-56
2023/12/26 01:17:45;;;;;;;1.40;0.77;;;;;21.00;99485.00;;;;2069820;28;20790;-56
2023/12/26 01:18:46;;;;;;;2.40;0.73;;;;;21.00;99490.00;;;;2074731;28;20222;-56
2023/12/26 01:19:47;;;;;;;1.30;0.60;;;;;21.00;99468.00;;;;2075970;28;20286;-56
2023/12/26 01:20:47;;;;;;;1.17;0.57;;;;;21.00;99479.00;;;;2067844;28;20218;-57
2023/12/26 01:21:47;;;;;;;2.27;0.50;;;;;21.00;99476.00;;;;2064164;28;20697;-56
2023/12/26 01:22:48;;;;;;;1.33;0.60;;;;;21.00;99471.00;;;;2077568;28;20686;-56
2023/12/26 01:23:48;;;;;;;1.70;0.70;;;;;20.40;99478.00;;;;2072114;28;20241;-56
2023/12/26 01:24:52;;;;;;;1.53;0.70;;;;;21.00;99478.00;;;;2077817;28;20213;-56
2023/12/26 01:25:52;;;;;;;1.95;0.82;;;;;21.00;99489.00;;;;2072934;28;20213;-55
2023/12/26 01:26:52;;;;;;;1.50;0.80;;;;;21.00;99536.00;;;;2066929;28;20581;-55
2023/12/26 01:27:53;;;;;;;1.30;0.60;;;;;21.00;99487.00;;;;2069578;28;20690;-55
2023/12/26 01:28:53;;;;;;;2.47;0.70;;;;;21.00;99489.00;;;;2070275;28;20725;-56
2023/12/26 01:29:53;;;;;;;1.90;0.80;;;;;21.00;99479.00;;;;2076090;28;20202;-56
2023/12/26 01:30:53;;;;;;;1.47;0.70;;;;;21.00;99483.00;;;;2074390;28;20205;-56
2023/12/26 01:31:54;;;;;;;1.90;1.00;;;;;21.00;99503.00;;;;2065169;28;20245;-56
2023/12/26 01:32:54;;;;;;;1.50;0.50;;;;;21.00;99497.00;;;;2076507;28;20205;-56
2023/12/26 01:33:54;;;;;;;1.20;0.53;;;;;21.00;99502.00;;;;2076504;28;20214;-56
2023/12/26 01:34:55;;;;;;;1.33;0.60;;;;;21.00;99501.00;;;;2076835;28;20213;-55
2023/12/26 01:35:55;;;;;;;1.40;0.53;;;;;21.00;99491.00;;;;2076081;28;20300;-56
2023/12/26 01:36:55;;;;;;;1.73;0.60;;;;;21.00;99496.00;;;;2065171;28;20233;-55
2023/12/26 01:37:56;;;;;;;14.97;0.90;;;;;21.00;99487.00;;;;2070242;28;20587;-56
2023/12/26 01:38:56;;;;;;;6.00;0.70;;;;;21.00;99492.00;;;;2077523;28;20751;-55
2023/12/26 01:39:57;;;;;;;1.73;0.60;;;;;21.00;99509.00;;;;2075025;28;20587;-56
2023/12/26 01:40:57;;;;;;;1.27;0.50;;;;;21.00;99506.00;;;;2076143;28;20216;-56
2023/12/26 01:41:58;;;;;;;1.57;0.63;;;;;21.00;99495.00;;;;2064231;28;20214;-55
2023/12/26 01:42:58;;;;;;;1.47;0.57;;;;;21.00;99507.00;;;;2074812;28;20215;-55
2023/12/26 01:43:58;;;;;;;4.70;0.73;;;;;21.00;99508.00;;;;2071248;28;20218;-55
2023/12/26 01:45:00;;;;;;;1.40;0.50;;;;;21.00;99495.00;;;;2073967;28;20268;-55
2023/12/26 01:46:02;;;;;;;1.50;0.50;;;;;21.00;99508.00;;;;2077564;28;20273;-56
2023/12/26 01:47:03;;;;;;;1.27;0.60;;;;;21.00;99510.00;;;;2065054;28;20217;-55
2023/12/26 01:48:03;;;;;;;1.30;0.50;;;;;21.00;99530.00;;;;2074588;28;20263;-55
2023/12/26 01:49:04;;;;;;;1.87;0.67;;;;;20.90;99510.00;;;;2070987;28;20214;-55
2023/12/26 01:50:05;;;;;;;2.03;0.60;;;;;20.90;99511.00;;;;2062458;28;20259;-55
2023/12/26 01:51:06;;;;;;;1.77;0.55;;;;;20.90;99510.00;;;;2062016;28;20211;-55
2023/12/26 01:52:07;;;;;;;1.85;0.57;;;;;20.90;99508.00;;;;2064172;28;20209;-56
2023/12/26 01:53:08;;;;;;;1.60;0.60;;;;;20.90;99516.00;;;;2075386;28;20220;-55
2023/12/26 01:54:08;;;;;;;1.50;0.60;;;;;20.90;99519.00;;;;2067500;28;20214;-55
2023/12/26 01:55:09;;;;;;;1.30;0.50;;;;;20.90;99513.00;;;;2071292;28;20304;-55
2023/12/26 01:56:10;;;;;;;2.40;0.60;;;;;20.90;99556.00;;;;2073775;28;20640;-55
2023/12/26 01:57:10;;;;;;;1.80;0.60;;;;;20.90;99528.00;;;;2063363;28;20220;-55
2023/12/26 01:58:11;;;;;;;1.40;0.60;;;;;20.90;99531.00;;;;2085769;28;20248;-55
2023/12/26 01:59:11;;;;;;;1.30;0.50;;;;;20.90;99527.00;;;;2082251;28;20220;-55
2023/12/26 02:00:12;;;;;;;1.60;0.63;;;;;20.90;99515.00;;;;2084468;28;20223;-56
2023/12/26 02:01:12;;;;;;;1.20;0.50;;;;;20.90;99526.00;;;;2080097;28;20240;-55
2023/12/26 02:02:13;;;;;;;1.30;0.40;;;;;20.90;99527.00;;;;2074273;28;20232;-54
2023/12/26 02:03:13;;;;;;;1.30;0.47;;;;;20.90;99521.00;;;;2075369;28;20225;-56
2023/12/26 02:04:14;;;;;;;1.00;0.40;;;;;20.90;99535.00;;;;2076771;28;20245;-56
2023/12/26 02:05:14;;;;;;;1.30;0.50;;;;;20.90;99527.00;;;;2080852;28;20224;-56
2023/12/26 02:06:14;;;;;;;1.13;0.50;;;;;20.90;99540.00;;;;2083427;28;20462;-56
2023/12/26 02:07:15;;;;;;;1.60;0.50;;;;;20.90;99527.00;;;;2064816;28;20211;-54
2023/12/26 02:08:15;;;;;;;1.90;0.50;;;;;20.90;99531.00;;;;2077136;28;20229;-55
2023/12/26 02:09:15;;;;;;;1.77;0.60;;;;;20.90;99529.00;;;;2076937;28;20217;-55
2023/12/26 02:10:16;;;;;;;1.20;0.53;;;;;20.90;99520.00;;;;2074507;28;20224;-56
2023/12/26 02:11:16;;;;;;;1.20;0.50;;;;;20.90;99535.00;;;;2075993;28;20241;-56
2023/12/26 02:12:16;;;;;;;1.80;0.70;;;;;20.90;99528.00;;;;2066172;28;20727;-56
2023/12/26 02:13:17;;;;;;;1.90;0.80;;;;;20.80;99538.00;;;;2064571;28;21012;-56
2023/12/26 02:14:17;;;;;;;1.40;0.40;;;;;20.80;99564.00;;;;2054072;28;20292;-55
2023/12/26 02:15:18;;;;;;;2.30;0.50;;;;;20.80;99561.00;;;;2072115;28;20720;-56
2023/12/26 02:16:19;;;;;;;1.27;0.50;;;;;20.80;99573.00;;;;2072958;28;20222;-55
2023/12/26 02:17:23;;;;;;;1.57;0.53;;;;;20.80;99543.00;;;;2059862;28;20354;-55
2023/12/26 02:18:23;;;;;;;1.00;0.40;;;;;20.80;99534.00;;;;2076460;28;21020;-57
2023/12/26 02:19:24;;;;;;;1.40;0.60;;;;;20.80;99533.00;;;;2079901;28;20305;-56
2023/12/26 02:20:24;;;;;;;1.20;0.60;;;;;20.80;99540.00;;;;2080653;28;20740;-55
2023/12/26 02:21:25;;;;;;;1.40;0.50;;;;;20.80;99528.00;;;;2074153;28;20279;-56
2023/12/26 02:22:25;;;;;;;1.07;0.40;;;;;20.80;99532.00;;;;2079431;28;20253;-56
2023/12/26 02:23:25;;;;;;;1.00;0.40;;;;;20.80;99532.00;;;;2081287;28;20224;-55
2023/12/26 02:24:26;;;;;;;3.70;0.63;;;;;20.80;99527.00;;;;2074398;28;20209;-55
2023/12/26 02:25:26;;;;;;;1.30;0.53;;;;;20.80;99532.00;;;;2067840;28;20218;-54
2023/12/26 02:26:27;;;;;;;3.60;0.60;;;;;20.80;99525.00;;;;2073487;28;20239;-55
2023/12/26 02:27:33;;;;;;;1.55;0.50;;;;;20.80;99540.00;;;;2079892;28;20677;-54
2023/12/26 02:28:35;;;;;;;1.20;0.40;;;;;20.80;99518.00;;;;2074718;28;20221;-55
2023/12/26 02:29:35;;;;;;;1.45;0.57;;;;;20.80;99497.00;;;;2072658;28;20217;-56
2023/12/26 02:30:36;;;;;;;1.30;0.40;;;;;20.80;99531.00;;;;2073938;28;20280;-56
2023/12/26 02:31:36;;;;;;;1.10;0.50;;;;;20.80;99525.00;;;;2058520;28;20222;-55
2023/12/26 02:32:38;;;;;;;1.40;0.50;;;;;20.80;99536.00;;;;2075418;28;20209;-56
2023/12/26 02:33:38;;;;;;;1.20;0.40;;;;;20.80;99548.00;;;;2068902;28;20214;-56
2023/12/26 02:34:38;;;;;;;1.40;0.47;;;;;20.80;99534.00;;;;2077248;28;20220;-54
2023/12/26 02:35:39;;;;;;;1.10;0.40;;;;;20.80;99532.00;;;;2075242;28;20264;-56
2023/12/26 02:36:39;;;;;;;1.27;0.50;;;;;20.80;99536.00;;;;2050158;28;20253;-56
2023/12/26 02:37:39;;;;;;;1.30;0.50;;;;;20.80;99540.00;;;;2066627;28;20226;-56
2023/12/26 02:38:40;;;;;;;1.20;0.50;;;;;20.80;99546.00;;;;2069233;28;20238;-56
2023/12/26 02:39:43;;;;;;;1.50;0.50;;;;;20.80;99530.00;;;;2073705;28;20248;-56
2023/12/26 02:40:43;;;;;;;1.30;0.40;;;;;20.80;99542.00;;;;2074102;28;20596;-54
2023/12/26 02:41:44;;;;;;;1.40;0.70;;;;;20.80;99533.00;;;;2065720;28;20226;-55
2023/12/26 02:42:45;;;;;;;1.10;0.40;;;;;20.80;99549.00;;;;2069675;28;20230;-55
2023/12/26 02:43:45;;;;;;;1.10;0.50;;;;;20.80;99536.00;;;;2068040;28;20260;-55
2023/12/26 02:44:45;;;;;;;1.13;0.50;;;;;20.80;99546.00;;;;2075207;28;20221;-55
2023/12/26 02:45:48;;;;;;;1.30;0.50;;;;;20.70;99551.00;;;;2075237;28;20213;-56
2023/12/26 02:46:48;;;;;;;1.10;0.40;;;;;20.80;99554.00;;;;2065791;28;20267;-55
2023/12/26 02:47:49;;;;;;;1.10;0.50;;;;;20.70;99557.00;;;;2073027;28;20295;-54
2023/12/26 02:48:49;;;;;;;1.50;0.60;;;;;20.70;99545.00;;;;2076360;28;20209;-55
2023/12/26 02:49:50;;;;;;;1.10;0.40;;;;;20.70;99566.00;;;;2075592;28;20278;-55
2023/12/26 02:50:50;;;;;;;1.20;0.40;;;;;20.70;99551.00;;;;2069131;28;20297;-56
2023/12/26 02:51:50;;;;;;;1.20;0.40;;;;;20.70;99564.00;;;;2066175;28;21130;-56
2023/12/26 02:52:51;;;;;;;1.20;0.40;;;;;20.70;99557.00;;;;2070922;28;20214;-56
2023/12/26 02:53:51;;;;;;;2.00;0.70;;;;;20.70;99564.00;;;;2075663;28;20676;-56
2023/12/26 02:54:52;;;;;;;3.03;0.67;;;;;20.70;99550.00;;;;2075747;28;20678;-55
2023/12/26 02:55:52;;;;;;;1.03;0.40;;;;;20.70;99408.00;;;;2068957;28;20975;-55
2023/12/26 02:56:52;;;;;;;1.30;0.40;;;;;20.70;99554.00;;;;2067019;28;20801;-54
2023/12/26 02:57:53;;;;;;;2.80;0.50;;;;;20.70;99551.00;;;;2073342;28;20616;-56
2023/12/26 02:58:53;;;;;;;1.67;0.60;;;;;20.70;99557.00;;;;2076803;28;20214;-56
2023/12/26 02:59:53;;;;;;;1.20;0.50;;;;;20.70;99562.00;;;;2071648;28;20264;-54
2023/12/26 03:00:54;;;;;;;1.10;0.43;;;;;20.70;99561.00;;;;2075916;28;20229;-55
2023/12/26 03:01:54;;;;;;;1.97;0.50;;;;;20.70;99549.00;;;;2066908;28;20267;-55
2023/12/26 03:02:55;;;;;;;1.27;0.50;;;;;20.70;99554.00;;;;2073419;28;20213;-56
2023/12/26 03:03:55;;;;;;;1.77;0.53;;;;;20.70;99555.00;;;;2065762;28;20205;-56
2023/12/26 03:04:55;;;;;;;3.13;0.40;;;;;20.70;99570.00;;;;2068716;28;20253;-56
2023/12/26 03:05:56;;;;;;;1.40;0.60;;;;;20.70;99553.00;;;;2069806;28;20213;-56
2023/12/26 03:06:56;;;;;;;1.00;0.40;;;;;20.70;99545.00;;;;2065318;28;20225;-60
2023/12/26 03:07:57;;;;;;;1.00;0.40;;;;;20.70;99549.00;;;;2067301;28;20218;-56
2023/12/26 03:08:57;;;;;;;1.70;0.47;;;;;20.70;99549.00;;;;2071573;28;20223;-58
2023/12/26 03:09:57;;;;;;;1.30;0.50;;;;;20.70;99563.00;;;;2073761;28;20256;-54
2023/12/26 03:10:58;;;;;;;1.47;0.50;;;;;20.70;99566.00;;;;2071225;28;20210;-55
2023/12/26 03:11:58;;;;;;;1.60;0.40;;;;;20.70;99640.00;;;;2065934;28;20272;-55
2023/12/26 03:12:58;;;;;;;0.90;0.30;;;;;20.70;99553.00;;;;2069453;28;21248;-54
2023/12/26 03:13:59;;;;;;;1.70;0.50;;;;;20.70;99560.00;;;;2076563;28;20860;-56
2023/12/26 03:14:59;;;;;;;1.10;0.40;;;;;20.70;99541.00;;;;2075709;28;20709;-55
2023/12/26 03:16:00;;;;;;;1.43;0.40;;;;;20.70;99542.00;;;;2073534;28;20468;-56
2023/12/26 03:17:00;;;;;;;1.20;0.50;;;;;20.70;99551.00;;;;2066757;28;20224;-55
2023/12/26 03:18:00;;;;;;;4.10;0.60;;;;;20.70;99561.00;;;;2069091;28;20244;-55
2023/12/26 03:19:01;;;;;;;1.30;0.50;;;;;20.70;99548.00;;;;2076343;28;20209;-54
2023/12/26 03:20:01;;;;;;;1.10;0.40;;;;;20.70;99549.00;;;;2075810;28;20216;-55
2023/12/26 03:21:02;;;;;;;1.30;0.40;;;;;20.70;99560.00;;;;2077413;28;20241;-54
2023/12/26 03:22:04;;;;;;;1.20;0.40;;;;;20.70;99547.00;;;;2060764;28;20284;-55
2023/12/26 03:23:04;;;;;;;1.00;0.40;;;;;20.70;99554.00;;;;2070811;28;20214;-56
2023/12/26 03:24:05;;;;;;;2.30;0.40;;;;;20.70;99553.00;;;;2078587;28;20237;-54
2023/12/26 03:25:06;;;;;;;1.57;0.50;;;;;20.70;99557.00;;;;2076274;28;20209;-55
2023/12/26 03:26:07;;;;;;;0.95;0.40;;;;;20.70;99545.00;;;;2076293;28;20279;-56
2023/12/26 03:27:07;;;;;;;1.17;0.40;;;;;20.70;99571.00;;;;2067486;28;20237;-54
2023/12/26 03:28:08;;;;;;;1.20;0.40;;;;;20.70;99553.00;;;;2078390;28;20215;-55
2023/12/26 03:29:08;;;;;;;1.37;0.40;;;;;20.70;99564.00;;;;2077221;28;20256;-55
2023/12/26 03:30:09;;;;;;;1.73;0.40;;;;;20.60;99556.00;;;;2075568;28;20218;-55
2023/12/26 03:31:09;;;;;;;1.20;0.40;;;;;20.60;99549.00;;;;2077794;28;20245;-55
2023/12/26 03:32:09;;;;;;;1.00;0.40;;;;;20.70;99564.00;;;;2056618;28;20250;-54
2023/12/26 03:33:09;;;;;;;1.50;0.50;;;;;20.60;99571.00;;;;2076222;28;20244;-55
2023/12/26 03:34:10;;;;;;;1.00;0.40;;;;;20.60;99562.00;;;;2075550;28;20216;-55
2023/12/26 03:35:11;;;;;;;1.77;0.47;;;;;20.60;99562.00;;;;2070301;28;20254;-55
2023/12/26 03:36:11;;;;;;;1.00;0.40;;;;;20.60;99564.00;;;;2076147;28;20856;-55
2023/12/26 03:37:11;;;;;;;1.30;0.50;;;;;20.60;99576.00;;;;2060184;28;20214;-55
2023/12/26 03:38:12;;;;;;;1.10;0.40;;;;;20.60;99578.00;;;;2072019;28;20220;-54
2023/12/26 03:39:12;;;;;;;1.50;0.50;;;;;20.60;99582.00;;;;2073113;28;20210;-56
2023/12/26 03:40:14;;;;;;;1.73;0.40;;;;;20.60;99578.00;;;;2070983;28;20635;-55
2023/12/26 03:41:14;;;;;;;1.30;0.50;;;;;20.60;99564.00;;;;2076604;28;20804;-55
2023/12/26 03:42:14;;;;;;;1.10;0.30;;;;;20.60;99580.00;;;;2065306;28;20301;-55
2023/12/26 03:43:16;;;;;;;1.00;0.40;;;;;20.60;99580.00;;;;2071447;28;20218;-55
2023/12/26 03:44:16;;;;;;;1.00;0.40;;;;;20.60;99585.00;;;;2072041;28;20234;-56
2023/12/26 03:45:17;;;;;;;1.00;0.37;;;;;20.60;99578.00;;;;2076516;28;20562;-56
2023/12/26 03:46:17;;;;;;;1.13;0.50;;;;;20.60;99576.00;;;;2075003;28;20592;-55
2023/12/26 03:47:17;;;;;;;1.00;0.40;;;;;20.60;99571.00;;;;2068143;28;20279;-54
2023/12/26 03:48:18;;;;;;;1.10;0.50;;;;;20.60;99569.00;;;;2075181;28;20253;-55
2023/12/26 03:49:18;;;;;;;1.30;0.40;;;;;20.60;99653.00;;;;2072742;28;21003;-56
2023/12/26 03:50:20;;;;;;;1.03;0.43;;;;;20.60;99582.00;;;;2075501;28;20614;-54
2023/12/26 03:51:20;;;;;;;1.00;0.30;;;;;20.60;99597.00;;;;2069258;28;20237;-57
2023/12/26 03:52:20;;;;;;;1.37;0.40;;;;;20.60;99584.00;;;;2074088;28;20202;-54
2023/12/26 03:53:21;;;;;;;1.03;0.40;;;;;20.60;99589.00;;;;2076182;28;20217;-55
2023/12/26 03:54:22;;;;;;;1.00;0.40;;;;;20.60;99600.00;;;;2077762;28;20213;-55
2023/12/26 03:55:22;;;;;;;1.10;0.30;;;;;20.60;99593.00;;;;2073937;28;20236;-55
2023/12/26 03:56:22;;;;;;;1.60;0.50;;;;;20.60;99595.00;;;;2063450;28;20467;-56
2023/12/26 03:57:23;;;;;;;1.07;0.40;;;;;20.60;99586.00;;;;2073880;28;20308;-54
2023/12/26 03:58:23;;;;;;;1.07;0.40;;;;;20.60;99584.00;;;;2076774;28;20229;-55
2023/12/26 03:59:24;;;;;;;3.17;0.33;;;;;20.60;99587.00;;;;2077958;28;20225;-55
2023/12/26 04:00:24;;;;;;;1.07;0.40;;;;;20.60;99594.00;;;;2073978;28;20213;-56
2023/12/26 04:01:24;;;;;;;1.00;0.40;;;;;20.60;99592.00;;;;2060374;28;20222;-56
2023/12/26 04:02:25;;;;;;;0.90;0.30;;;;;20.60;99655.00;;;;2064097;28;20256;-55
2023/12/26 04:03:25;;;;;;;0.90;0.40;;;;;20.60;99595.00;;;;2093105;28;20619;-55
2023/12/26 04:04:26;;;;;;;1.20;0.40;;;;;20.60;99601.00;;;;2093514;28;20584;-55
2023/12/26 04:05:26;;;;;;;1.17;0.33;;;;;20.60;99606.00;;;;2085040;28;20677;-56
2023/12/26 04:06:26;;;;;;;1.20;0.30;;;;;20.60;99604.00;;;;2077975;28;20224;-56
2023/12/26 04:07:27;;;;;;;1.10;0.40;;;;;20.60;99599.00;;;;2086265;28;20221;-56
2023/12/26 04:08:27;;;;;;;1.10;0.40;;;;;20.60;99600.00;;;;2082028;28;20224;-56
2023/12/26 04:09:27;;;;;;;1.00;0.40;;;;;20.60;99593.00;;;;2084842;28;20236;-54
2023/12/26 04:10:28;;;;;;;1.00;0.30;;;;;20.60;99591.00;;;;2080816;28;20220;-55
2023/12/26 04:11:30;;;;;;;1.10;0.40;;;;;19.90;99600.00;;;;2076584;28;20216;-55
2023/12/26 04:12:31;;;;;;;1.00;0.40;;;;;20.60;99606.00;;;;2089244;28;20243;-55
2023/12/26 04:13:32;;;;;;;2.55;0.40;;;;;20.60;99600.00;;;;2091644;28;20224;-54
2023/12/26 04:14:32;;;;;;;1.00;0.40;;;;;20.60;99603.00;;;;2089103;28;20216;-55
2023/12/26 04:15:32;;;;;;;1.40;0.50;;;;;20.60;99595.00;;;;2090099;28;20220;-55
2023/12/26 04:16:33;;;;;;;0.90;0.30;;;;;20.60;99593.00;;;;2070790;28;20249;-53
2023/12/26 04:17:33;;;;;;;1.10;0.40;;;;;20.60;99579.00;;;;2082873;28;20464;-53
2023/12/26 04:18:33;;;;;;;3.50;0.40;;;;;20.60;99589.00;;;;2085287;28;21510;-58
2023/12/26 04:19:34;;;;;;;0.90;0.40;;;;;20.60;99582.00;;;;2080001;28;20228;-58
2023/12/26 04:20:34;;;;;;;1.77;0.50;;;;;20.60;99593.00;;;;2082633;28;20232;-53
2023/12/26 04:21:35;;;;;;;1.07;0.40;;;;;20.60;99590.00;;;;2070678;28;20263;-54
2023/12/26 04:22:35;;;;;;;1.00;0.40;;;;;20.50;99584.00;;;;2080252;28;20323;-54
2023/12/26 04:23:35;;;;;;;1.03;0.40;;;;;20.60;99596.00;;;;2083081;28;20220;-54
2023/12/26 04:24:36;;;;;;;1.00;0.30;;;;;20.50;99591.00;;;;2080856;28;20228;-54
2023/12/26 04:25:36;;;;;;;1.60;0.43;;;;;20.60;99607.00;;;;2085390;28;20213;-52
2023/12/26 04:26:37;;;;;;;1.23;0.40;;;;;20.50;99597.00;;;;2073846;28;20236;-52
2023/12/26 04:27:37;;;;;;;1.50;0.40;;;;;20.50;99599.00;;;;2085882;28;20216;-52
2023/12/26 04:28:37;;;;;;;1.00;0.40;;;;;20.50;99603.00;;;;2081562;28;20209;-53
2023/12/26 04:29:38;;;;;;;1.00;0.40;;;;;20.50;99610.00;;;;2081660;28;20219;-54
2023/12/26 04:30:39;;;;;;;1.00;0.40;;;;;20.50;99622.00;;;;2084125;28;20216;-53
2023/12/26 04:31:39;;;;;;;1.15;0.40;;;;;20.50;99602.00;;;;2070448;28;20233;-54
2023/12/26 04:32:39;;;;;;;1.30;0.40;;;;;20.50;99618.00;;;;2086227;28;21003;-53
2023/12/26 04:33:40;;;;;;;1.50;0.50;;;;;20.50;99618.00;;;;2084369;28;21097;-55
2023/12/26 04:34:40;;;;;;;1.10;0.30;;;;;20.50;99616.00;;;;2085978;28;20322;-53
2023/12/26 04:35:41;;;;;;;1.20;0.47;;;;;20.50;99629.00;;;;2081654;28;20237;-54
2023/12/26 04:36:41;;;;;;;1.00;0.40;;;;;20.50;99615.00;;;;2073506;28;20391;-53
2023/12/26 04:37:41;;;;;;;1.10;0.40;;;;;20.50;99617.00;;;;2083281;28;20216;-53
2023/12/26 04:38:41;;;;;;;1.00;0.40;;;;;20.50;99623.00;;;;2083231;28;20227;-53
2023/12/26 04:39:42;;;;;;;1.00;0.40;;;;;20.50;99636.00;;;;2084941;28;20221;-54
2023/12/26 04:40:42;;;;;;;1.53;0.40;;;;;20.50;99625.00;;;;2083039;28;20217;-54
2023/12/26 04:41:43;;;;;;;1.03;0.30;;;;;20.50;99635.00;;;;2073231;28;20233;-54
2023/12/26 04:42:43;;;;;;;1.20;0.40;;;;;20.20;99626.00;;;;2079682;28;20218;-54
2023/12/26 04:43:43;;;;;;;1.40;0.40;;;;;20.50;99634.00;;;;2082724;28;20224;-53
2023/12/26 04:44:46;;;;;;;1.00;0.40;;;;;20.50;99640.00;;;;2084653;28;20239;-54
2023/12/26 04:45:46;;;;;;;1.17;0.40;;;;;20.50;99635.00;;;;2085675;28;20229;-54
2023/12/26 04:46:46;;;;;;;1.03;0.40;;;;;20.50;99638.00;;;;2075136;28;20236;-54
2023/12/26 04:47:47;;;;;;;1.53;0.40;;;;;20.50;99615.00;;;;2080761;28;20225;-54
2023/12/26 04:48:47;;;;;;;1.10;0.40;;;;;20.50;99631.00;;;;2086473;28;20300;-53
2023/12/26 04:49:47;;;;;;;1.17;0.40;;;;;20.50;99646.00;;;;2086979;28;20204;-52
2023/12/26 04:50:48;;;;;;;1.10;0.40;;;;;20.50;99640.00;;;;2087367;28;20236;-53
2023/12/26 04:51:48;;;;;;;1.73;0.40;;;;;20.50;99647.00;;;;2073359;28;20250;-54
2023/12/26 04:52:49;;;;;;;1.40;0.50;;;;;20.50;99652.00;;;;2080963;28;20217;-54
2023/12/26 04:53:50;;;;;;;1.70;0.50;;;;;20.50;99661.00;;;;2086533;28;20282;-54
2023/12/26 04:54:50;;;;;;;1.30;0.40;;;;;20.50;99654.00;;;;2084833;28;20482;-52
2023/12/26 04:55:50;;;;;;;1.27;0.40;;;;;20.40;99649.00;;;;2083353;28;20269;-53
2023/12/26 04:56:51;;;;;;;1.20;0.40;;;;;20.50;99652.00;;;;2078606;28;20289;-54
2023/12/26 04:57:51;;;;;;;1.20;0.47;;;;;20.50;99660.00;;;;2087963;28;20221;-54
2023/12/26 04:58:51;;;;;;;1.03;0.40;;;;;20.50;99657.00;;;;2079741;28;20273;-54
2023/12/26 04:59:52;;;;;;;1.20;0.50;;;;;20.50;99656.00;;;;2075964;28;20237;-54
2023/12/26 05:00:52;;;;;;;1.10;0.40;;;;;20.50;99623.00;;;;2078318;28;20311;-52
2023/12/26 05:01:52;;;;;;;1.20;0.50;;;;;20.50;99662.00;;;;2063386;28;20230;-53
2023/12/26 05:02:53;;;;;;;1.83;0.40;;;;;20.50;99664.00;;;;2069809;28;20210;-53
2023/12/26 05:03:53;;;;;;;1.20;0.40;;;;;20.50;99668.00;;;;2069537;28;20302;-54